Terminal Aerodrome Forecast
Issued by NWS Wilmington, OH

Current Version | Previous Version | Text Only | Print | Product List | Glossary Off
Versions: 1 2 3 4 5 6 7 8 9 10 11 12 13 14 15 16 17 18 19 20 21

000
FTUS41 KILN 180500
TAFILN
TAF
KILN 180531Z 1806/1906 VRB03KT P6SM SKC
     FM180900 02003KT 4SM BR SCT150
      TEMPO 1809/1812 2SM BR
     FM181400 04007KT P6SM SCT040
     FM182300 04004KT P6SM FEW050=

USA.gov is the U.S. government's official web portal to all federal, state and local government web resources and services.